Terminal Aerodrome Forecast
Issued by NWS Paducah, KY

Home | Current Version | Previous Version | Text Only | Print | Product List | Glossary On
Versions: 1 2 3 4 5 6 7 8 9 10 11 12 13 14 15
239
FTUS43 KPAH 230728 AAB
TAFPAH
TAF AMD
KPAH 230728Z 2307/2406 17010G15KT P6SM BKN015
     FM230900 19007KT 5SM -SHRA BR VCTS OVC010CB
     FM231200 18008KT 3SM +SHRA OVC008
     FM232100 31010KT P6SM SCT025 OVC040=

USA.gov is the U.S. government's official web portal to all federal, state and local government web resources and services.